Flight Track Log - Related Links

Times and Time Zones

All times are in EDT time to prevent confusion due to time zone crossing. See the EJA372 flight status page for this flight to view local times or setup timezone preferences in your user account.

Time Position Orientation Groundspeed Altitude Reporting Facility
EDT Latitude Longitude Course Direction KTS MPH feet Rate Location/Type
Fri 03:40:07 PM 41.5686 -81.4794 49° Northeast 148 170 1,300  Level Cleveland Center
Fri 03:40:32 PM 41.5792 -81.4631 49° Northeast 156 180 2,000 1,814 Climbing Cleveland Center
Fri 03:41:33 PM 41.5589 -81.3933 111° Southeast 274 315 3,900 2,056 Climbing Cleveland Center
Fri 03:42:20 PM 41.5008 -81.3706 164° South 274 315 5,700 2,860 Climbing Cleveland Center
Fri 03:43:20 PM 41.4300 -81.3475 166° South 311 358 9,000 2,150 Climbing Cleveland Center
Fri 03:44:20 PM 41.3386 -81.3161 166° South 339 390 10,000 1,050 Climbing Cleveland Center
Fri 03:45:20 PM 41.2428 -81.2681 159° South 357 411 11,100 2,100 Climbing Cleveland Center
Fri 03:46:20 PM 41.1725 -81.1844 138° Southeast 351 404 14,200 2,777 Climbing Cleveland Center
Fri 03:47:21 PM 41.1253 -81.0572 116° Southeast 351 404 16,700 2,250 Climbing Cleveland Center
Fri 03:48:20 PM 41.0819 -80.9247 113° Southeast 368 423 18,700 2,000 Climbing Cleveland Center
Fri 03:49:21 PM 41.0322 -80.7894 116° Southeast 387 445 20,700 2,000 Climbing Cleveland Center
Fri 03:50:20 PM 40.9822 -80.6492 115° Southeast 406 467 22,700 1,867 Climbing Cleveland Center
Fri 03:52:21 PM 40.8778 -80.3525 115° Southeast 434 499 26,300 1,800 Climbing Cleveland Center
Fri 03:53:20 PM 40.8169 -80.1908 116° Southeast 439 505 28,100 1,714 Climbing Cleveland Center
Fri 03:54:20 PM 40.7808 -80.0292 106° East 447 514 29,700 1,500 Climbing Cleveland Center
Fri 03:55:20 PM 40.7508 -79.8786 105° East 458 527 31,100 1,500 Climbing Cleveland Center
Fri 03:56:20 PM 40.6978 -79.7258 115° Southeast 458 527 32,700 1,450 Climbing Cleveland Center
Fri 03:57:20 PM 40.6381 -79.5789 118° Southeast 458 527 34,000 650 Climbing Cleveland Center
Fri 03:58:20 PM 40.5742 -79.4269 119° Southeast 458 527 34,000  Level Cleveland Center
Fri 03:59:20 PM 40.4992 -79.2533 120° Southeast 479 551 34,000 150 Level Cleveland Center
Fri 04:00:20 PM 40.4392 -79.1100 119° Southeast 493 567 34,300 397 Climbing Cleveland Center
Fri 04:01:21 PM 40.3828 -78.9422 114° Southeast 493 567 34,800 496 Climbing Cleveland Center
Fri 04:02:21 PM 40.3342 -78.7719 110° East 498 573 35,300 504 Climbing Cleveland Center
Fri 04:03:20 PM 40.2833 -78.6017 111° Southeast 498 573 35,800 600 Climbing Cleveland Center
Fri 04:04:21 PM 40.2367 -78.4344 110° East 493 567 36,500 407 Climbing Cleveland Center
Fri 04:06:17 PM 40.1400 -78.1056 111° Southeast 505 581 37,000 169 Climbing New York Center
Fri 04:07:18 PM 40.0919 -77.9375 110° East 505 581 37,000  Level New York Center
Fri 04:08:19 PM 40.0339 -77.7553 113° Southeast 500 575 37,000  Level New York Center
Fri 04:09:20 PM 39.9853 -77.5878 111° Southeast 500 575 37,000  Level New York Center
Fri 04:10:17 PM 39.9325 -77.4175 112° Southeast 495 570 37,000  Level New York Center
Fri 04:11:17 PM 39.8833 -77.2531 111° Southeast 495 570 37,000  Level New York Center
Fri 04:13:15 PM 39.7792 -76.9225 112° Southeast 491 565 37,000  Level Washington Center
Fri 04:14:16 PM 39.7267 -76.7569 112° Southeast 491 565 37,000  Level Washington Center
Fri 04:15:17 PM 39.6742 -76.5917 112° Southeast 496 571 37,000  Level Washington Center
Fri 04:16:15 PM 39.6275 -76.4322 111° Southeast 490 564 37,000  Level Washington Center
Fri 04:17:16 PM 39.5764 -76.2700 112° Southeast 484 557 37,000  Level Washington Center
Fri 04:18:16 PM 39.5208 -76.1028 113° Southeast 490 564 37,000  Level Washington Center
Fri 04:19:15 PM 39.4694 -75.9383 112° Southeast 490 564 37,000  Level Washington Center
Fri 04:20:15 PM 39.4156 -75.7717 113° Southeast 501 577 37,000  Level Washington Center
Fri 04:21:16 PM 39.3636 -75.6103 113° Southeast 496 571 37,000  Level Washington Center
Fri 04:22:17 PM 39.3114 -75.4575 114° Southeast 503 579 37,000  Level Washington Center
Fri 04:23:15 PM 39.2589 -75.2942 113° Southeast 503 579 37,000  Level Washington Center
Fri 04:24:16 PM 39.2042 -75.1308 113° Southeast 497 572 37,000  Level Washington Center
Fri 04:25:16 PM 39.1492 -74.9653 113° Southeast 502 578 37,000  Level Washington Center
Fri 04:26:16 PM 39.0942 -74.8053 114° Southeast 496 571 37,000  Level Washington Center
Fri 04:27:17 PM 39.0200 -74.6511 122° Southeast 496 571 37,000  Level Washington Center
Fri 04:29:43 PM 38.8375 -74.2839 122° Southeast 513 590 37,000  Level New York Center
Fri 04:30:42 PM 38.7647 -74.1364 122° Southeast 507 583 37,000  Level New York Center
Fri 04:31:42 PM 38.6897 -73.9814 122° Southeast 507 583 37,000  Level New York Center
Fri 04:32:43 PM 38.6125 -73.8344 124° Southeast 507 583 37,000  Level New York Center
Fri 04:33:44 PM 38.5369 -73.6797 122° Southeast 507 583 37,000 -504 Level New York Center
Fri 04:34:42 PM 38.4614 -73.5336 123° Southeast 507 583 36,000 -1,017 Descending New York Center
Fri 04:35:42 PM 38.3856 -73.3875 123° Southeast 497 572 35,000 -942 Descending New York Center
Fri 04:36:43 PM 38.3094 -73.2392 123° Southeast 497 572 34,100 -942 Descending New York Center
Fri 04:37:43 PM 38.2356 -73.0808 121° Southeast 503 579 33,100 -1,000 Descending New York Center
Fri 04:38:43 PM 38.1550 -72.9356 125° Southeast 508 585 32,100 -1,017 Descending New York Center
Fri 04:39:41 PM 38.0806 -72.7828 122° Southeast 508 585 31,100 -559 Descending New York Center
Fri 04:40:41 PM 38.0122 -72.6308 120° Southeast 501 577 31,000 -50 Descending New York Center
Fri 04:41:42 PM 37.9436 -72.4761 119° Southeast 501 577 31,000  Level New York Center
Fri 04:42:42 PM 37.8728 -72.3194 120° Southeast 508 585 31,000  Level New York Center
Fri 04:43:42 PM 37.8039 -72.1681 120° Southeast 508 585 31,000  Level New York Center
Fri 04:44:43 PM 37.7347 -72.0144 120° Southeast 508 585 31,000  Level New York Center
Fri 04:45:41 PM 37.6633 -71.8636 121° Southeast 508 585 31,000  Level New York Center
Fri 04:46:41 PM 37.5981 -71.6922 116° Southeast 496 571 31,000  Level New York Center
Fri 04:47:42 PM 37.5239 -71.5578 125° Southeast 504 580 31,000  Level New York Center
Fri 04:48:42 PM 37.4500 -71.4078 122° Southeast 560 644 31,000  Level New York Center
Fri 04:49:41 PM 37.3631 -71.2736 129° Southeast 499 574 31,000  Level New York Center
Fri 04:49:48 PM 37.4833 -71.4500 129° Southeast 502 578 31,000  Level New York Oceanic (ODAPS)
Fri 04:50:42 PM 37.2739 -71.1400 129° Southeast 499 574 31,000  Level New York Center
Fri 04:52:00 PM 37.1780 -70.9831 129° Southeast  Level FlightAware Approximate
Fri 04:59:00 PM 36.6263 -70.1516 129° Southeast  Level FlightAware Approximate
Fri 05:00:00 PM 36.5470 -70.0338 130° Southeast  Level FlightAware Approximate
Fri 05:01:00 PM 36.4676 -69.9163 130° Southeast  Level FlightAware Approximate
Fri 05:02:00 PM 36.3881 -69.7989 130° Southeast  Level FlightAware Approximate
Fri 05:03:00 PM 36.3085 -69.6818 130° Southeast  Level FlightAware Approximate
Fri 05:04:00 PM 36.2287 -69.5650 130° Southeast  Level FlightAware Approximate
Fri 05:04:12 PM 36.1667 -69.4500 143° Southeast 507 583 31,000  Level New York Oceanic (ODAPS)
Fri 05:05:00 PM 36.1486 -69.4487 142° Southeast  Level FlightAware Approximate
Fri 05:06:00 PM 36.0515 -69.3545 142° Southeast  Level FlightAware Approximate
Fri 05:07:00 PM 35.9542 -69.2605 142° Southeast  Level FlightAware Approximate
Fri 05:08:00 PM 35.8569 -69.1668 142° Southeast  Level FlightAware Approximate
Fri 05:09:00 PM 35.7595 -69.0733 142° Southeast  Level FlightAware Approximate
Fri 05:10:00 PM 35.3793 -68.7129 143° Southeast 507 583 31,000  Level FlightAware Transoceanic
Fri 05:11:00 PM 35.2665 -68.6088 143° Southeast 507 583 31,000  Level FlightAware Transoceanic
Fri 05:12:00 PM 35.1536 -68.5050 143° Southeast 507 583 31,000  Level FlightAware Transoceanic
Fri 05:13:00 PM 35.0406 -68.4015 143° Southeast 507 583 31,000  Level FlightAware Transoceanic
Fri 05:14:00 PM 34.9275 -68.2982 143° Southeast 507 583 31,000  Level FlightAware Transoceanic
Fri 05:15:00 PM 34.8143 -68.1953 143° Southeast 507 583 31,000  Level FlightAware Transoceanic
Fri 05:16:00 PM 34.7010 -68.0926 143° Southeast 507 583 31,000  Level FlightAware Transoceanic
Fri 05:17:00 PM 34.5876 -67.9902 143° Southeast 507 583 31,000  Level FlightAware Transoceanic
Fri 05:18:00 PM 34.4742 -67.8880 143° Southeast 507 583 31,000  Level FlightAware Transoceanic
Fri 05:19:00 PM 34.3606 -67.7862 144° Southeast 507 583 31,000  Level FlightAware Transoceanic
Fri 05:20:00 PM 34.2470 -67.6846 144° Southeast 507 583 31,000  Level FlightAware Transoceanic
Fri 05:21:00 PM 34.1333 -67.5833 125° Southeast 507 583 31,000  Level FlightAware Transoceanic
Fri 05:21:58 PM 34.1333 -67.5833 125° Southeast 487 560 31,000  Level New York Oceanic (ODAPS)
Fri 05:22:00 PM 34.0545 -67.4489 125° Southeast 507 583 31,000  Level FlightAware Transoceanic
Fri 05:23:00 PM 33.9756 -67.3148 125° Southeast 507 583 31,000  Level FlightAware Transoceanic
Fri 05:24:00 PM 33.8964 -67.1809 125° Southeast 507 583 31,000  Level FlightAware Transoceanic
Fri 05:25:00 PM 33.8172 -67.0473 126° Southeast 507 583 31,000  Level FlightAware Transoceanic
Fri 05:26:00 PM 33.7378 -66.9139 126° Southeast 507 583 31,000  Level FlightAware Transoceanic
Fri 05:27:00 PM 33.6582 -66.7807 126° Southeast 507 583 31,000  Level FlightAware Transoceanic
Fri 05:28:00 PM 33.5786 -66.6478 126° Southeast 487 560 31,000  Level FlightAware Transoceanic
Fri 05:29:00 PM 33.4987 -66.5152 126° Southeast 487 560 31,000  Level FlightAware Transoceanic
Fri 05:30:00 PM 33.4188 -66.3828 126° Southeast 487 560 31,000  Level FlightAware Transoceanic
Fri 05:31:00 PM 33.3387 -66.2506 126° Southeast 487 560 31,000  Level FlightAware Transoceanic
Fri 05:32:00 PM 33.2584 -66.1187 126° Southeast 487 560 31,000  Level FlightAware Transoceanic
Fri 05:33:00 PM 33.1780 -65.9870 126° Southeast 487 560 31,000 -5,625 Level FlightAware Transoceanic
Fri 05:33:04 PM 33.3833 -66.3167 126° Southeast 500 575 25,000  Descending New York Oceanic (ODAPS)
Fri 05:34:00 PM 33.0975 -65.8556 126° Southeast 487 560 31,000 3,103 Climbing FlightAware Transoceanic
Fri 05:35:00 PM 33.0168 -65.7243 126° Southeast 487 560 31,000  Level FlightAware Transoceanic
Fri 05:36:00 PM 32.9360 -65.5934 126° Southeast 487 560 31,000 -3,273 Level FlightAware Transoceanic
Fri 05:36:50 PM 33.0167 -65.7333 126° Southeast 484 557 25,000  Descending New York Oceanic (ODAPS)
Fri 05:37:00 PM 32.8551 -65.4627 126° Southeast 487 560 31,000 5,143 Climbing FlightAware Transoceanic
Fri 05:38:00 PM 32.7740 -65.3322 127° Southeast 487 560 31,000 -9,512 Level FlightAware Transoceanic
Fri 05:38:22 PM 33.0167 -65.7333 126° Southeast 484 557 18,000 -6,000 Descending New York Oceanic (ODAPS)
Fri 05:39:00 PM 32.7079 -65.2236 127° Southeast 500 575 25,000 4,286 Climbing FlightAware Transoceanic
Fri 05:40:00 PM 32.6228 -65.0882 127° Southeast 500 575 25,000  Level FlightAware Transoceanic
Fri 05:41:00 PM 32.5376 -64.9530 127° Southeast 500 575 25,000 -6,165 Level FlightAware Transoceanic
Fri 05:41:49 PM 32.7167 -65.2500 126° Southeast 514 592 13,800  Descending New York Oceanic (ODAPS)
Fri 05:42:00 PM 32.4522 -64.8180 127° Southeast 500 575 25,000 -766 Climbing FlightAware Transoceanic
Fri 05:43:00 PM 32.6345 -65.1184 128° Southeast  Level FlightAware Approximate
Fri 05:44:00 PM 32.6754 -65.1796 128° Southeast  Level FlightAware Approximate
Fri 05:44:10 PM 32.7167 -65.2500 126° Southeast 514 592 12,000  Level New York Oceanic (ODAPS)
Fri 05:45:00 PM 32.5988 -65.0647 125° Southeast  Level FlightAware Approximate
Fri 05:45:12 PM 32.7167 -65.2500 126° Southeast 514 592 11,000  Level New York Oceanic (ODAPS)
Fri 05:46:00 PM 32.5273 -64.9454 125° Southeast  Level FlightAware Approximate
Fri 05:46:06 PM 32.7167 -65.2500 126° Southeast 110 127 11,000  Level New York Oceanic (ODAPS)
Fri 05:47:00 PM 32.4499 -64.8332 125° Southeast  Level FlightAware Approximate
Fri 05:48:00 PM 32.3640 -64.6787 90° East  Level Estimated
Fri 05:48:26 PM 32.7167 -65.2500 126° Southeast 110 127 8,000  Level New York Oceanic (ODAPS)
Fri 05:49:00 PM 32.3640 -64.6787 90° East  Level Estimated
Fri 05:50:00 PM 32.3640 -64.6787 90° East  Level Estimated
Fri 05:51:00 PM 32.3640 -64.6787 90° East  Level Estimated
Fri 05:52:00 PM 32.3640 -64.6787 90° East  Level Estimated
Fri 05:53:00 PM 32.3640 -64.6787 90° East  Level Estimated
Fri 05:54:00 PM 32.3640 -64.6787 90° East  Level Estimated
Fri 05:55:00 PM 32.3640 -64.6787 90° East  Level Estimated
Fri 05:56:00 PM 32.3640 -64.6787 90° East  Level Estimated
Fri 05:57:00 PM 32.3640 -64.6787 90° East  Level Estimated
Fri 05:58:00 PM 32.3640 -64.6787 90° East  Level Estimated
Fri 05:59:00 PM 32.3640 -64.6787 90° East  Level Estimated

Login

Don't have an account? Register now (free) for customized features, flight alerts, and more!